Homestead Gen Aviation, FL

5:07 PM EST on December 07, 2016 (GMT -0500)
Farmland Estates | | Change Station

Elev 8 ft 25.47 °N, 80.52 °W | Updated 7 seconds ago

Mostly Cloudy
Mostly Cloudy
81.0 °F
Feels Like 87 °F
N
3.0
Wind Variable Wind from SE
Gusts 7.0 mph

Today
High -- | Low -- °F
--% Chance of Precip.
Yesterday
High -- | Low -- °F
Precip. -- in
Pressure 30.03 in
Visibility 10.0 miles
Clouds Few 1200 ft
Mostly Cloudy 2400 ft
Heat Index 87 °F
Dew Point 75 °F
Humidity 83%
Rainfall 0.00 in
Snow Depth Not available.
6:55 AM 5:32 PM
First Quarter, 56% visible
METAR KHST 072158Z AUTO 07004KT 10SM FEW012 BKN024 26/26 A3002 RMK AO2 SLP169 T02580258
Pressure 30.03 in
Visibility 10.0 miles
Clouds Few 1200 ft
Mostly Cloudy 2400 ft
Heat Index 87 °F
Dew Point 75 °F
Humidity 83%
Rainfall 0.00 in
Snow Depth Not available.
6:55 AM 5:32 PM
First Quarter, 56% visible
METAR KHST 072158Z AUTO 07004KT 10SM FEW012 BKN024 26/26 A3002 RMK AO2 SLP169 T02580258

10-Day Weather Forecast

Almanac

Astronomy

Dec. 07, 2016 Rise Set
Actual Time
Civil Twilight
Nautical Twilight
Astronomical Twilight
Moon
Length of Visible Light
Length of Day
Tomorrow will be .
, % of the Moon is Illuminated

Today's Extremes

State Highs State Lows

Community

WunderPhotos

Upload Photos

1,956,209 photos uploaded!

WunderBlog® & News

Nearby

Air Quality

  Air Quality AQ Index Pollutant
Not available.

Snow Depth

Station Depth Elevation

Earthquake Activity

City Distance Mag. Time & Date
Minimum magnitude displayed is 2.5.

Coastal Water Temperatures

Place Temperature

Stations

Nearby Weather Stations

Station Location Temp. Windchill Dew Point Humidity Wind Precip. Elev Updated Type
                   

Watches & Warnings

There are currently no watches in effect.